createdAt,value
2022-10-22T00:00:14.557Z,14.90
2022-10-22T00:02:42.093Z,14.90
2022-10-22T00:05:09.771Z,14.80
2022-10-22T00:07:36.914Z,14.70
2022-10-22T00:10:05.919Z,14.50
2022-10-22T00:12:33.153Z,14.50
2022-10-22T00:15:00.322Z,14.60
2022-10-22T00:17:27.779Z,14.80
2022-10-22T00:19:55.154Z,14.30
2022-10-22T00:22:22.457Z,14.00
2022-10-22T00:24:49.868Z,14.00
2022-10-22T00:27:16.961Z,14.10
2022-10-22T00:29:44.156Z,14.20
2022-10-22T00:32:11.504Z,14.40
2022-10-22T00:34:38.641Z,14.30
2022-10-22T00:37:05.787Z,14.10
2022-10-22T00:39:33.217Z,14.10
2022-10-22T00:42:00.609Z,14.20
2022-10-22T00:44:46.574Z,14.30
2022-10-22T00:47:14.587Z,14.40
2022-10-22T00:49:41.996Z,14.30
2022-10-22T00:52:09.584Z,14.40
2022-10-22T00:54:37.507Z,14.50
2022-10-22T00:57:04.787Z,14.70
2022-10-22T00:59:31.961Z,14.50
2022-10-22T01:01:59.110Z,14.40
2022-10-22T01:04:26.673Z,14.50
2022-10-22T01:06:54.087Z,14.60
2022-10-22T01:09:40.026Z,14.70
2022-10-22T01:12:26.590Z,14.70
2022-10-22T01:15:09.174Z,14.60
2022-10-22T01:17:41.447Z,14.60
2022-10-22T01:20:27.765Z,14.70
2022-10-22T01:23:21.537Z,14.60
2022-10-22T01:25:56.765Z,14.60
2022-10-22T01:28:35.189Z,14.60
2022-10-22T01:31:03.617Z,14.50
2022-10-22T01:33:31.242Z,14.50
2022-10-22T01:36:00.252Z,14.60
2022-10-22T01:38:27.820Z,14.60
2022-10-22T01:40:56.742Z,14.60
2022-10-22T01:43:24.150Z,14.60
2022-10-22T01:45:52.846Z,14.30
2022-10-22T01:48:27.776Z,14.40
2022-10-22T01:51:13.624Z,14.40
2022-10-22T01:53:53.301Z,14.00
2022-10-22T01:56:41.137Z,13.90
2022-10-22T01:59:08.352Z,13.90
2022-10-22T02:01:54.248Z,13.90
2022-10-22T02:04:26.671Z,13.90
2022-10-22T02:06:56.696Z,14.10
2022-10-22T02:09:24.520Z,14.30
2022-10-22T02:11:52.327Z,14.30
2022-10-22T02:14:20.193Z,14.30
2022-10-22T02:16:48.884Z,14.20
2022-10-22T02:19:33.510Z,14.20
2022-10-22T02:22:01.083Z,14.20
2022-10-22T02:24:28.337Z,14.20
2022-10-22T02:27:05.865Z,14.30
2022-10-22T02:29:33.032Z,14.30
2022-10-22T02:32:01.653Z,14.30
2022-10-22T02:34:31.092Z,13.90
2022-10-22T02:36:59.685Z,13.90
2022-10-22T02:39:27.881Z,14.00
2022-10-22T02:41:56.625Z,13.90
2022-10-22T02:44:24.380Z,13.90
2022-10-22T02:46:51.508Z,13.90
2022-10-22T02:49:18.754Z,13.60
2022-10-22T02:51:45.873Z,13.60
2022-10-22T02:54:13.020Z,13.70
2022-10-22T02:56:40.179Z,13.90
2022-10-22T02:59:07.327Z,14.00
2022-10-22T03:01:34.934Z,13.90
2022-10-22T03:04:02.166Z,13.80
2022-10-22T03:06:29.344Z,13.90
2022-10-22T03:08:57.041Z,13.90
2022-10-22T03:11:24.239Z,13.90
2022-10-22T03:13:51.525Z,13.70
2022-10-22T03:16:18.744Z,13.70
2022-10-22T03:18:45.959Z,13.90
2022-10-22T03:21:21.215Z,14.00
2022-10-22T03:23:48.668Z,14.00
2022-10-22T03:26:15.849Z,13.90
2022-10-22T03:28:43.455Z,14.00
2022-10-22T03:31:10.708Z,13.90
2022-10-22T03:33:37.749Z,13.50
2022-10-22T03:36:06.468Z,13.50
2022-10-22T03:38:35.476Z,13.50
2022-10-22T03:41:02.800Z,13.50
2022-10-22T03:43:29.894Z,13.60
2022-10-22T03:45:57.076Z,13.70
2022-10-22T03:48:24.318Z,13.60
2022-10-22T03:50:51.749Z,13.60
2022-10-22T03:53:19.239Z,13.70
2022-10-22T03:55:46.393Z,13.80
2022-10-22T03:58:13.772Z,13.90
2022-10-22T04:00:43.342Z,13.60
2022-10-22T04:03:11.510Z,13.60
2022-10-22T04:05:38.723Z,13.70
2022-10-22T04:08:08.807Z,13.80
2022-10-22T04:10:36.094Z,13.80
2022-10-22T04:13:03.195Z,13.70
2022-10-22T04:15:32.003Z,13.80
2022-10-22T04:17:59.405Z,13.70
2022-10-22T04:20:26.625Z,13.50
2022-10-22T04:22:54.075Z,13.50
2022-10-22T04:25:21.681Z,13.50
2022-10-22T04:27:49.272Z,13.60
2022-10-22T04:30:17.558Z,13.70
2022-10-22T04:32:45.800Z,13.60
2022-10-22T04:35:13.442Z,13.50
2022-10-22T04:37:41.114Z,13.60
2022-10-22T04:40:09.153Z,13.70
2022-10-22T04:42:36.419Z,13.80
2022-10-22T04:45:04.668Z,13.80
2022-10-22T04:47:32.787Z,13.70
2022-10-22T04:49:59.998Z,13.60
2022-10-22T04:52:27.204Z,13.70
2022-10-22T04:54:54.326Z,13.70
2022-10-22T04:57:22.097Z,13.70
2022-10-22T04:59:49.393Z,13.80
2022-10-22T05:02:16.672Z,13.70
2022-10-22T05:04:44.544Z,13.60
2022-10-22T05:07:11.782Z,13.10
2022-10-22T05:09:38.891Z,13.00
2022-10-22T05:12:06.711Z,13.10
2022-10-22T05:14:33.914Z,13.10
2022-10-22T05:17:01.368Z,13.30
2022-10-22T05:19:30.036Z,13.50
2022-10-22T05:21:58.917Z,13.50
2022-10-22T05:24:28.096Z,13.50
2022-10-22T05:26:56.854Z,13.50
2022-10-22T05:29:24.051Z,13.60
2022-10-22T05:31:51.818Z,13.70
2022-10-22T05:34:19.477Z,13.90
2022-10-22T05:36:48.204Z,14.00
2022-10-22T05:39:15.331Z,14.00
2022-10-22T05:41:42.539Z,13.90
2022-10-22T05:44:12.075Z,13.90
2022-10-22T05:46:40.291Z,13.70
2022-10-22T05:49:07.791Z,13.70
2022-10-22T05:51:36.099Z,13.80
2022-10-22T05:54:04.151Z,13.90
2022-10-22T05:56:32.225Z,13.80
2022-10-22T05:58:59.761Z,13.90
2022-10-22T06:01:33.969Z,14.00
2022-10-22T06:04:03.146Z,14.10
2022-10-22T06:06:33.252Z,14.20
2022-10-22T06:09:19.389Z,14.20
2022-10-22T06:11:47.322Z,14.30
2022-10-22T06:14:14.969Z,14.30
2022-10-22T06:16:42.397Z,14.30
2022-10-22T06:19:15.604Z,14.10
2022-10-22T06:21:43.147Z,13.90
2022-10-22T06:24:11.074Z,14.00
2022-10-22T06:26:38.830Z,14.20
2022-10-22T06:29:06.336Z,14.30
2022-10-22T06:31:37.236Z,14.40
2022-10-22T06:34:05.289Z,14.50
2022-10-22T06:36:32.455Z,14.50
2022-10-22T06:39:00.009Z,14.60
2022-10-22T06:41:28.963Z,14.50
2022-10-22T06:44:30.877Z,14.60
2022-10-22T06:46:58.308Z,14.60
2022-10-22T06:49:38.571Z,14.70
2022-10-22T06:52:09.095Z,14.80
2022-10-22T06:54:36.914Z,14.90
2022-10-22T06:57:04.218Z,14.90
2022-10-22T06:59:32.502Z,15.00
2022-10-22T07:01:59.936Z,14.80
2022-10-22T07:04:27.344Z,14.80
2022-10-22T07:06:57.779Z,14.90
2022-10-22T07:09:25.843Z,14.90
2022-10-22T07:11:53.102Z,14.90
2022-10-22T07:14:20.800Z,14.90
2022-10-22T07:16:48.374Z,15.00
2022-10-22T07:19:16.117Z,15.30
2022-10-22T07:21:43.425Z,15.30
2022-10-22T07:24:10.900Z,15.30
2022-10-22T07:26:38.178Z,15.50
2022-10-22T07:29:07.678Z,15.60
2022-10-22T07:31:35.734Z,15.60
2022-10-22T07:34:03.161Z,15.40
2022-10-22T07:36:30.457Z,15.30
2022-10-22T07:38:59.969Z,15.40
2022-10-22T07:41:29.338Z,15.60
2022-10-22T07:43:57.888Z,15.70
2022-10-22T07:46:26.578Z,15.80
2022-10-22T07:48:54.508Z,16.00
2022-10-22T07:51:22.293Z,16.10
2022-10-22T07:53:49.945Z,16.30
2022-10-22T07:56:17.836Z,16.40
2022-10-22T07:58:47.790Z,16.50
2022-10-22T08:01:15.781Z,16.60
2022-10-22T08:03:43.080Z,16.70
2022-10-22T08:06:13.838Z,16.80
2022-10-22T08:08:42.447Z,16.90
2022-10-22T08:11:10.712Z,17.00
2022-10-22T08:13:42.718Z,17.00
2022-10-22T08:16:14.499Z,17.00
2022-10-22T08:18:48.878Z,17.00
2022-10-22T08:21:17.782Z,17.30
2022-10-22T08:23:45.075Z,17.50
2022-10-22T08:26:12.769Z,17.60
2022-10-22T08:28:40.168Z,17.50
2022-10-22T08:31:08.457Z,17.50
2022-10-22T08:33:36.524Z,17.60
2022-10-22T08:36:04.044Z,17.80
2022-10-22T08:38:35.504Z,17.80
2022-10-22T08:41:13.442Z,17.70
2022-10-22T08:44:00.049Z,17.50
2022-10-22T08:46:39.475Z,17.40
2022-10-22T08:49:31.706Z,17.40
2022-10-22T08:51:59.792Z,17.50
2022-10-22T08:54:53.616Z,17.60
2022-10-22T08:57:24.465Z,17.80
2022-10-22T09:00:27.504Z,18.00
2022-10-22T09:03:15.033Z,18.30
2022-10-22T09:05:59.437Z,18.40
2022-10-22T09:08:26.834Z,18.50
2022-10-22T09:11:14.050Z,18.40
2022-10-22T09:13:43.713Z,18.20
2022-10-22T09:16:38.722Z,18.10
2022-10-22T09:19:27.511Z,17.80
2022-10-22T09:22:19.420Z,17.60
2022-10-22T09:24:49.486Z,17.50
2022-10-22T09:27:26.223Z,17.50
2022-10-22T09:29:53.598Z,17.50
2022-10-22T09:32:21.716Z,17.50
2022-10-22T09:34:51.339Z,17.50
2022-10-22T09:37:25.091Z,17.60
2022-10-22T09:39:54.313Z,17.80
2022-10-22T09:42:22.721Z,17.80
2022-10-22T09:44:59.342Z,17.40
2022-10-22T09:47:43.215Z,17.50
2022-10-22T09:50:28.546Z,17.70
2022-10-22T09:53:12.645Z,18.00
2022-10-22T09:55:42.232Z,18.20
2022-10-22T09:58:15.271Z,18.20
2022-10-22T10:00:47.063Z,18.20
2022-10-22T10:03:25.336Z,18.50
2022-10-22T10:06:01.622Z,18.90
2022-10-22T10:08:33.109Z,19.00
2022-10-22T10:11:02.443Z,19.10
2022-10-22T10:13:45.992Z,19.10
2022-10-22T10:16:41.080Z,19.00
2022-10-22T10:19:43.369Z,18.90
2022-10-22T10:22:54.519Z,18.90
2022-10-22T10:26:02.755Z,19.00
2022-10-22T10:28:58.332Z,19.20
2022-10-22T10:31:33.944Z,19.40
2022-10-22T10:34:01.329Z,19.70
2022-10-22T10:36:44.602Z,19.90
2022-10-22T10:39:32.653Z,20.00
2022-10-22T10:42:22.300Z,20.40
2022-10-22T10:45:34.925Z,20.60
2022-10-22T10:48:16.510Z,20.40
2022-10-22T10:51:26.781Z,20.20
2022-10-22T10:54:31.993Z,20.40
2022-10-22T10:57:13.435Z,20.70
2022-10-22T10:59:55.719Z,20.70
2022-10-22T11:02:54.060Z,20.50
2022-10-22T11:05:51.196Z,20.50
2022-10-22T11:08:24.806Z,20.40
2022-10-22T11:11:03.862Z,20.50
2022-10-22T11:13:40.521Z,20.70
2022-10-22T11:16:17.048Z,20.80
2022-10-22T11:19:06.366Z,20.90
2022-10-22T11:21:42.331Z,21.00
2022-10-22T11:24:20.511Z,21.00
2022-10-22T11:27:31.687Z,20.90
2022-10-22T11:30:27.643Z,21.00
2022-10-22T11:33:02.237Z,21.00
2022-10-22T11:35:34.888Z,20.90
2022-10-22T11:38:04.998Z,20.70
2022-10-22T11:40:53.104Z,20.90
2022-10-22T11:44:14.133Z,20.90
2022-10-22T11:46:54.984Z,20.90
2022-10-22T11:49:44.806Z,20.70
2022-10-22T11:52:28.233Z,20.70
2022-10-22T11:54:58.131Z,21.00
2022-10-22T11:57:29.557Z,21.10
2022-10-22T11:59:59.988Z,21.20
2022-10-22T12:02:46.130Z,21.40
2022-10-22T12:05:35.095Z,21.40
2022-10-22T12:08:24.217Z,21.30
2022-10-22T12:11:11.218Z,21.50
2022-10-22T12:14:13.391Z,21.40
2022-10-22T12:16:58.024Z,21.50
2022-10-22T12:19:37.388Z,21.40
2022-10-22T12:22:10.249Z,21.10
2022-10-22T12:24:40.877Z,21.10
2022-10-22T12:27:28.178Z,21.10
2022-10-22T12:29:58.991Z,21.30
2022-10-22T12:32:38.195Z,21.40
2022-10-22T12:35:15.996Z,21.70
2022-10-22T12:37:44.009Z,22.20
2022-10-22T12:40:21.978Z,22.80
2022-10-22T12:42:56.656Z,23.10
2022-10-22T12:45:33.459Z,23.10
2022-10-22T12:48:09.459Z,23.20
2022-10-22T12:50:41.761Z,23.50
2022-10-22T12:53:46.676Z,23.70
2022-10-22T12:56:22.421Z,23.90
2022-10-22T12:58:56.893Z,23.80
2022-10-22T13:01:28.108Z,23.40
2022-10-22T13:04:15.243Z,23.10
2022-10-22T13:06:51.042Z,23.10
2022-10-22T13:09:25.241Z,23.00
2022-10-22T13:12:05.730Z,22.80
2022-10-22T13:14:35.901Z,22.70
2022-10-22T13:17:37.503Z,22.40
2022-10-22T13:20:32.847Z,22.20
2022-10-22T13:23:05.747Z,22.20
2022-10-22T13:25:35.840Z,22.50
2022-10-22T13:28:13.243Z,22.50
2022-10-22T13:31:14.653Z,22.30
2022-10-22T13:33:45.517Z,22.50
2022-10-22T13:36:17.129Z,22.90
2022-10-22T13:38:45.132Z,23.20
2022-10-22T13:41:33.449Z,23.40
2022-10-22T13:44:00.874Z,23.30
2022-10-22T13:46:29.596Z,23.30
2022-10-22T13:48:59.042Z,23.20
2022-10-22T13:51:35.402Z,22.90
2022-10-22T13:54:04.018Z,22.90
2022-10-22T13:56:31.301Z,23.00
2022-10-22T13:58:58.628Z,23.10
2022-10-22T14:01:28.446Z,23.10
2022-10-22T14:04:01.968Z,23.00
2022-10-22T14:06:32.118Z,23.00
2022-10-22T14:09:12.136Z,23.00
2022-10-22T14:11:40.055Z,23.10
2022-10-22T14:14:09.298Z,23.30
2022-10-22T14:16:37.978Z,23.40
2022-10-22T14:19:10.545Z,23.30
2022-10-22T14:21:38.658Z,23.40
2022-10-22T14:24:08.367Z,23.50
2022-10-22T14:26:38.167Z,23.40
2022-10-22T14:29:10.324Z,23.30
2022-10-22T14:31:43.793Z,23.00
2022-10-22T14:34:14.557Z,22.90
2022-10-22T14:36:44.368Z,22.90
2022-10-22T14:39:13.073Z,22.90
2022-10-22T14:41:41.382Z,23.00
2022-10-22T14:44:14.908Z,23.10
2022-10-22T14:46:44.672Z,23.30
2022-10-22T14:49:12.421Z,22.90
2022-10-22T14:51:39.766Z,22.20
2022-10-22T14:54:07.183Z,22.10
2022-10-22T14:56:34.691Z,22.20
2022-10-22T14:59:01.989Z,22.70
2022-10-22T15:01:29.576Z,23.00
2022-10-22T15:03:57.724Z,23.20
2022-10-22T15:06:25.468Z,23.40
2022-10-22T15:08:53.450Z,23.10
2022-10-22T15:11:22.333Z,22.80
2022-10-22T15:13:50.151Z,22.20
2022-10-22T15:16:18.664Z,21.80
2022-10-22T15:18:46.119Z,21.50
2022-10-22T15:21:19.726Z,21.40
2022-10-22T15:23:47.961Z,21.10
2022-10-22T15:26:15.712Z,21.00
2022-10-22T15:28:44.482Z,21.00
2022-10-22T15:31:14.561Z,20.90
2022-10-22T15:33:43.927Z,20.90
2022-10-22T15:36:16.681Z,20.90
2022-10-22T15:38:44.577Z,20.80
2022-10-22T15:41:13.664Z,20.70
2022-10-22T15:43:42.251Z,20.60
2022-10-22T15:46:18.865Z,20.60
2022-10-22T15:48:46.386Z,20.60
2022-10-22T15:51:16.032Z,20.50
2022-10-22T15:53:44.564Z,20.50
2022-10-22T15:56:14.958Z,20.50
2022-10-22T15:58:44.211Z,20.40
2022-10-22T16:01:13.724Z,20.30
2022-10-22T16:03:41.874Z,20.30
2022-10-22T16:06:09.828Z,20.30
2022-10-22T16:08:37.950Z,20.30
2022-10-22T16:11:06.006Z,20.20
2022-10-22T16:13:36.076Z,20.20
2022-10-22T16:16:10.491Z,20.10
2022-10-22T16:18:37.789Z,20.00
2022-10-22T16:21:05.283Z,20.00
2022-10-22T16:23:32.543Z,20.00
2022-10-22T16:26:03.118Z,20.00
2022-10-22T16:28:30.735Z,20.00
2022-10-22T16:31:04.830Z,20.00
2022-10-22T16:33:41.292Z,20.00
2022-10-22T16:36:18.761Z,19.90
2022-10-22T16:38:47.576Z,19.90
2022-10-22T16:41:23.940Z,19.70
2022-10-22T16:43:57.119Z,19.70
2022-10-22T16:46:27.343Z,19.70
2022-10-22T16:48:58.556Z,19.70
2022-10-22T16:51:31.290Z,19.60
2022-10-22T16:53:58.856Z,19.50
2022-10-22T16:56:27.095Z,19.50
2022-10-22T16:58:59.141Z,19.50
2022-10-22T17:01:29.263Z,19.50
2022-10-22T17:04:01.152Z,19.50
2022-10-22T17:06:28.986Z,19.40
2022-10-22T17:08:57.580Z,19.40
2022-10-22T17:11:26.373Z,19.40
2022-10-22T17:13:55.548Z,19.40
2022-10-22T17:16:25.647Z,19.40
2022-10-22T17:18:58.346Z,19.30
2022-10-22T17:21:26.407Z,19.30
2022-10-22T17:23:58.052Z,19.30
2022-10-22T17:26:27.560Z,19.30
2022-10-22T17:28:57.147Z,19.30
2022-10-22T17:31:33.073Z,19.30
2022-10-22T17:34:00.622Z,19.30
2022-10-22T17:36:33.240Z,19.40
2022-10-22T17:39:06.951Z,19.40
2022-10-22T17:41:36.911Z,19.20
2022-10-22T17:44:05.904Z,19.10
2022-10-22T17:46:34.141Z,19.10
2022-10-22T17:49:08.179Z,19.10
2022-10-22T17:51:35.678Z,19.10
2022-10-22T17:54:05.968Z,19.00
2022-10-22T17:56:37.377Z,18.70
2022-10-22T17:59:04.754Z,18.40
2022-10-22T18:01:39.788Z,18.40
2022-10-22T18:04:09.320Z,18.40
2022-10-22T18:06:37.669Z,18.50
2022-10-22T18:09:11.514Z,18.50
2022-10-22T18:11:40.892Z,18.50
2022-10-22T18:14:10.303Z,18.40
2022-10-22T18:16:39.531Z,18.40
2022-10-22T18:19:07.428Z,18.40
2022-10-22T18:21:34.992Z,18.40
2022-10-22T18:24:02.383Z,18.50
2022-10-22T18:26:29.743Z,18.30
2022-10-22T18:28:58.332Z,18.30
2022-10-22T18:31:27.120Z,18.20
2022-10-22T18:33:55.854Z,18.10
2022-10-22T18:36:26.069Z,18.00
2022-10-22T18:38:56.095Z,17.70
2022-10-22T18:41:23.782Z,17.60
2022-10-22T18:43:57.448Z,17.60
2022-10-22T18:46:26.114Z,17.60
2022-10-22T18:48:55.155Z,17.50
2022-10-22T18:51:25.037Z,17.50
2022-10-22T18:54:05.164Z,17.60
2022-10-22T18:56:45.225Z,17.70
2022-10-22T18:59:22.053Z,17.50
2022-10-22T19:01:49.558Z,17.50
2022-10-22T19:04:16.854Z,17.50
2022-10-22T19:06:45.748Z,17.50
2022-10-22T19:09:15.681Z,17.60
2022-10-22T19:11:45.297Z,17.50
2022-10-22T19:14:15.261Z,17.50
2022-10-22T19:16:44.282Z,17.10
2022-10-22T19:19:16.155Z,16.90
2022-10-22T19:21:45.299Z,16.90
2022-10-22T19:24:15.336Z,17.00
2022-10-22T19:26:43.291Z,16.80
2022-10-22T19:29:13.447Z,16.50
2022-10-22T19:31:48.370Z,16.40
2022-10-22T19:34:15.732Z,16.40
2022-10-22T19:36:43.027Z,16.50
2022-10-22T19:39:10.464Z,16.60
2022-10-22T19:41:37.785Z,16.70
2022-10-22T19:44:05.306Z,16.80
2022-10-22T19:46:32.891Z,16.80
2022-10-22T19:49:02.027Z,16.80
2022-10-22T19:51:31.057Z,16.80
2022-10-22T19:54:00.880Z,16.80
2022-10-22T19:56:29.289Z,16.80
2022-10-22T19:58:58.008Z,16.70
2022-10-22T20:01:26.816Z,16.60
2022-10-22T20:03:54.965Z,16.20
2022-10-22T20:06:22.442Z,16.20
2022-10-22T20:08:53.798Z,15.80
2022-10-22T20:11:27.730Z,15.80
2022-10-22T20:13:57.796Z,16.00
2022-10-22T20:16:28.737Z,16.10
2022-10-22T20:19:00.011Z,16.20
2022-10-22T20:21:28.579Z,16.20
2022-10-22T20:23:57.640Z,16.20
2022-10-22T20:26:28.354Z,16.20
2022-10-22T20:28:58.385Z,16.30
2022-10-22T20:31:28.772Z,16.40
2022-10-22T20:33:58.569Z,16.40
2022-10-22T20:36:27.210Z,16.20
2022-10-22T20:39:00.713Z,16.20
2022-10-22T20:41:29.505Z,16.30
2022-10-22T20:43:57.809Z,16.20
2022-10-22T20:46:33.481Z,16.20
2022-10-22T20:49:09.867Z,16.30
2022-10-22T20:51:38.550Z,16.20
2022-10-22T20:54:07.598Z,15.90
2022-10-22T20:56:38.611Z,16.00
2022-10-22T20:59:08.479Z,16.00
2022-10-22T21:01:44.772Z,16.00
2022-10-22T21:04:12.199Z,15.60
2022-10-22T21:06:41.484Z,15.60
2022-10-22T21:09:14.973Z,15.80
2022-10-22T21:11:43.671Z,16.00
2022-10-22T21:14:12.647Z,16.00
2022-10-22T21:16:49.750Z,16.00
2022-10-22T21:19:19.468Z,16.00
2022-10-22T21:21:46.848Z,16.00
2022-10-22T21:24:14.832Z,15.80
2022-10-22T21:26:43.525Z,15.80
2022-10-22T21:29:12.885Z,16.00
2022-10-22T21:31:41.004Z,15.90
2022-10-22T21:34:08.335Z,16.00
2022-10-22T21:36:35.974Z,16.00
2022-10-22T21:39:03.391Z,16.00
2022-10-22T21:41:31.214Z,15.80
2022-10-22T21:43:59.655Z,15.80
2022-10-22T21:46:29.241Z,15.80
2022-10-22T21:49:02.234Z,15.90
2022-10-22T21:51:35.654Z,15.80
2022-10-22T21:54:03.018Z,15.80
2022-10-22T21:56:35.967Z,16.00
2022-10-22T21:59:05.027Z,16.00
2022-10-22T22:01:32.823Z,15.80
2022-10-22T22:04:01.267Z,15.80
2022-10-22T22:06:33.050Z,15.50
2022-10-22T22:09:02.071Z,15.60
2022-10-22T22:11:30.943Z,15.70
2022-10-22T22:13:59.849Z,15.80
2022-10-22T22:16:30.066Z,15.70
2022-10-22T22:19:00.439Z,15.50
2022-10-22T22:21:29.502Z,15.60
2022-10-22T22:23:58.282Z,15.80
2022-10-22T22:26:30.268Z,15.80
2022-10-22T22:29:01.336Z,15.90
2022-10-22T22:31:38.537Z,16.00
2022-10-22T22:34:10.407Z,16.00
2022-10-22T22:36:40.194Z,16.00
2022-10-22T22:39:11.077Z,16.00
2022-10-22T22:41:38.470Z,16.00
2022-10-22T22:44:05.900Z,16.00
2022-10-22T22:46:33.583Z,16.00
2022-10-22T22:49:01.173Z,15.80
2022-10-22T22:51:33.902Z,15.60
2022-10-22T22:54:09.137Z,15.50
2022-10-22T22:56:38.944Z,15.40
2022-10-22T22:59:06.902Z,15.50
2022-10-22T23:01:37.035Z,15.50
2022-10-22T23:04:05.961Z,15.50
2022-10-22T23:06:36.391Z,15.50
2022-10-22T23:09:09.595Z,15.20
2022-10-22T23:11:37.300Z,15.30
2022-10-22T23:14:06.705Z,15.40
2022-10-22T23:16:36.937Z,15.30
2022-10-22T23:19:05.558Z,15.10
2022-10-22T23:21:36.104Z,15.20
2022-10-22T23:24:05.170Z,15.20
2022-10-22T23:26:39.740Z,15.10
2022-10-22T23:29:37.836Z,15.00
2022-10-22T23:32:08.488Z,15.00
2022-10-22T23:34:36.025Z,15.00
2022-10-22T23:37:03.323Z,15.00
2022-10-22T23:39:31.001Z,14.90
2022-10-22T23:41:58.749Z,15.00
2022-10-22T23:44:26.761Z,15.00
2022-10-22T23:46:55.618Z,15.10
2022-10-22T23:49:22.977Z,14.90
2022-10-22T23:51:50.284Z,14.80
2022-10-22T23:54:21.017Z,14.90
2022-10-22T23:56:48.395Z,15.00
2022-10-22T23:59:16.109Z,15.00
